sensor_id;sensor_type;location;lat;lon;timestamp;P1;durP1;ratioP1;P2;durP2;ratioP2
22040;SDS011;11184;52.444;13.578;2023-03-01T00:02:41;18.52;;;16.35;;
22040;SDS011;11184;52.444;13.578;2023-03-01T00:05:25;25.30;;;16.95;;
22040;SDS011;11184;52.444;13.578;2023-03-01T00:08:10;17.35;;;15.15;;
22040;SDS011;11184;52.444;13.578;2023-03-01T00:13:59;24.63;;;16.75;;
22040;SDS011;11184;52.444;13.578;2023-03-01T00:16:45;24.40;;;15.77;;
22040;SDS011;11184;52.444;13.578;2023-03-01T00:19:30;24.98;;;17.05;;
22040;SDS011;11184;52.444;13.578;2023-03-01T00:22:16;19.08;;;16.25;;
22040;SDS011;11184;52.444;13.578;2023-03-01T00:25:00;21.38;;;17.38;;
22040;SDS011;11184;52.444;13.578;2023-03-01T00:27:46;23.05;;;16.95;;
22040;SDS011;11184;52.444;13.578;2023-03-01T00:30:32;23.50;;;19.30;;
22040;SDS011;11184;52.444;13.578;2023-03-01T00:33:17;28.90;;;19.42;;
22040;SDS011;11184;52.444;13.578;2023-03-01T00:36:02;26.52;;;19.77;;
22040;SDS011;11184;52.444;13.578;2023-03-01T00:38:47;25.58;;;19.08;;
22040;SDS011;11184;52.444;13.578;2023-03-01T00:41:31;28.13;;;20.58;;
22040;SDS011;11184;52.444;13.578;2023-03-01T00:44:18;25.92;;;20.00;;
22040;SDS011;11184;52.444;13.578;2023-03-01T00:47:02;25.98;;;20.38;;
22040;SDS011;11184;52.444;13.578;2023-03-01T00:49:47;25.70;;;19.00;;
22040;SDS011;11184;52.444;13.578;2023-03-01T00:52:32;30.77;;;20.55;;
22040;SDS011;11184;52.444;13.578;2023-03-01T00:55:17;23.55;;;18.88;;
22040;SDS011;11184;52.444;13.578;2023-03-01T00:58:01;23.50;;;20.30;;
22040;SDS011;11184;52.444;13.578;2023-03-01T01:00:46;26.92;;;22.15;;
22040;SDS011;11184;52.444;13.578;2023-03-01T01:03:31;29.80;;;22.00;;
22040;SDS011;11184;52.444;13.578;2023-03-01T01:06:16;32.15;;;22.88;;
22040;SDS011;11184;52.444;13.578;2023-03-01T01:09:02;34.17;;;23.00;;
22040;SDS011;11184;52.444;13.578;2023-03-01T01:11:48;30.83;;;23.58;;
22040;SDS011;11184;52.444;13.578;2023-03-01T01:14:34;27.60;;;20.65;;
22040;SDS011;11184;52.444;13.578;2023-03-01T01:17:19;33.67;;;22.20;;
22040;SDS011;11184;52.444;13.578;2023-03-01T01:20:04;28.30;;;23.85;;
22040;SDS011;11184;52.444;13.578;2023-03-01T01:22:49;34.22;;;23.17;;
22040;SDS011;11184;52.444;13.578;2023-03-01T01:25:35;32.45;;;24.20;;
22040;SDS011;11184;52.444;13.578;2023-03-01T01:28:20;29.15;;;21.73;;
22040;SDS011;11184;52.444;13.578;2023-03-01T01:31:05;32.00;;;20.42;;
22040;SDS011;11184;52.444;13.578;2023-03-01T01:33:50;30.23;;;21.40;;
22040;SDS011;11184;52.444;13.578;2023-03-01T01:36:35;26.25;;;21.35;;
22040;SDS011;11184;52.444;13.578;2023-03-01T01:39:20;29.50;;;21.50;;
22040;SDS011;11184;52.444;13.578;2023-03-01T01:42:05;28.33;;;20.35;;
22040;SDS011;11184;52.444;13.578;2023-03-01T01:45:15;29.83;;;20.35;;
22040;SDS011;11184;52.444;13.578;2023-03-01T01:47:55;26.00;;;20.27;;
22040;SDS011;11184;52.444;13.578;2023-03-01T01:50:41;22.77;;;18.42;;
22040;SDS011;11184;52.444;13.578;2023-03-01T01:53:28;21.30;;;17.17;;
22040;SDS011;11184;52.444;13.578;2023-03-01T01:56:13;24.05;;;18.98;;
22040;SDS011;11184;52.444;13.578;2023-03-01T01:58:59;27.63;;;20.58;;
22040;SDS011;11184;52.444;13.578;2023-03-01T02:01:45;23.77;;;19.85;;
22040;SDS011;11184;52.444;13.578;2023-03-01T02:04:31;22.00;;;19.33;;
22040;SDS011;11184;52.444;13.578;2023-03-01T02:07:17;24.88;;;17.52;;
22040;SDS011;11184;52.444;13.578;2023-03-01T02:10:03;26.95;;;19.92;;
22040;SDS011;11184;52.444;13.578;2023-03-01T02:12:47;23.25;;;18.05;;
22040;SDS011;11184;52.444;13.578;2023-03-01T02:15:35;20.02;;;17.50;;
22040;SDS011;11184;52.444;13.578;2023-03-01T02:18:21;20.40;;;17.92;;
22040;SDS011;11184;52.444;13.578;2023-03-01T02:21:10;23.30;;;19.15;;
22040;SDS011;11184;52.444;13.578;2023-03-01T02:23:55;24.88;;;19.42;;
22040;SDS011;11184;52.444;13.578;2023-03-01T02:26:42;24.42;;;19.85;;
22040;SDS011;11184;52.444;13.578;2023-03-01T02:29:29;21.85;;;18.75;;
22040;SDS011;11184;52.444;13.578;2023-03-01T02:32:14;22.85;;;19.45;;
22040;SDS011;11184;52.444;13.578;2023-03-01T02:34:59;21.90;;;18.92;;
22040;SDS011;11184;52.444;13.578;2023-03-01T02:37:44;27.30;;;18.83;;
22040;SDS011;11184;52.444;13.578;2023-03-01T02:40:29;23.52;;;19.83;;
22040;SDS011;11184;52.444;13.578;2023-03-01T02:43:15;24.45;;;19.35;;
22040;SDS011;11184;52.444;13.578;2023-03-01T02:46:05;19.98;;;17.55;;
22040;SDS011;11184;52.444;13.578;2023-03-01T02:48:54;21.00;;;17.58;;
22040;SDS011;11184;52.444;13.578;2023-03-01T02:51:54;26.52;;;18.13;;
22040;SDS011;11184;52.444;13.578;2023-03-01T02:54:47;22.17;;;18.17;;
22040;SDS011;11184;52.444;13.578;2023-03-01T02:57:34;23.20;;;18.38;;
22040;SDS011;11184;52.444;13.578;2023-03-01T03:00:21;26.08;;;19.08;;
22040;SDS011;11184;52.444;13.578;2023-03-01T03:03:07;24.88;;;17.60;;
22040;SDS011;11184;52.444;13.578;2023-03-01T03:05:52;26.15;;;17.80;;
22040;SDS011;11184;52.444;13.578;2023-03-01T03:08:37;21.83;;;16.77;;
22040;SDS011;11184;52.444;13.578;2023-03-01T03:11:22;23.05;;;17.35;;
22040;SDS011;11184;52.444;13.578;2023-03-01T03:14:07;28.85;;;21.73;;
22040;SDS011;11184;52.444;13.578;2023-03-01T03:16:56;26.45;;;19.52;;
22040;SDS011;11184;52.444;13.578;2023-03-01T03:19:40;22.10;;;18.90;;
22040;SDS011;11184;52.444;13.578;2023-03-01T03:22:28;22.75;;;18.67;;
22040;SDS011;11184;52.444;13.578;2023-03-01T03:25:13;22.92;;;18.30;;
22040;SDS011;11184;52.444;13.578;2023-03-01T03:27:57;20.23;;;18.08;;
22040;SDS011;11184;52.444;13.578;2023-03-01T03:30:42;26.10;;;18.25;;
22040;SDS011;11184;52.444;13.578;2023-03-01T03:33:27;28.38;;;18.98;;
22040;SDS011;11184;52.444;13.578;2023-03-01T03:36:15;21.80;;;18.65;;
22040;SDS011;11184;52.444;13.578;2023-03-01T03:39:01;25.35;;;19.05;;
22040;SDS011;11184;52.444;13.578;2023-03-01T03:41:45;22.17;;;18.02;;
22040;SDS011;11184;52.444;13.578;2023-03-01T03:44:30;25.95;;;20.30;;
22040;SDS011;11184;52.444;13.578;2023-03-01T03:47:14;27.77;;;18.88;;
22040;SDS011;11184;52.444;13.578;2023-03-01T03:49:59;28.10;;;19.50;;
22040;SDS011;11184;52.444;13.578;2023-03-01T03:52:44;23.73;;;18.05;;
22040;SDS011;11184;52.444;13.578;2023-03-01T03:55:28;23.10;;;17.98;;
22040;SDS011;11184;52.444;13.578;2023-03-01T03:58:13;31.20;;;20.55;;
22040;SDS011;11184;52.444;13.578;2023-03-01T04:00:58;26.75;;;18.98;;
22040;SDS011;11184;52.444;13.578;2023-03-01T04:03:44;28.13;;;19.95;;
22040;SDS011;11184;52.444;13.578;2023-03-01T04:06:30;23.38;;;18.65;;
22040;SDS011;11184;52.444;13.578;2023-03-01T04:09:14;26.42;;;19.85;;
22040;SDS011;11184;52.444;13.578;2023-03-01T04:11:59;28.88;;;19.33;;
22040;SDS011;11184;52.444;13.578;2023-03-01T04:14:44;30.48;;;20.20;;
22040;SDS011;11184;52.444;13.578;2023-03-01T04:17:28;26.23;;;19.15;;
22040;SDS011;11184;52.444;13.578;2023-03-01T04:20:14;27.05;;;19.80;;
22040;SDS011;11184;52.444;13.578;2023-03-01T04:23:09;29.20;;;20.63;;
22040;SDS011;11184;52.444;13.578;2023-03-01T04:25:55;24.70;;;19.92;;
22040;SDS011;11184;52.444;13.578;2023-03-01T04:28:41;27.10;;;21.05;;
22040;SDS011;11184;52.444;13.578;2023-03-01T04:31:29;25.75;;;20.55;;
22040;SDS011;11184;52.444;13.578;2023-03-01T04:34:14;28.83;;;22.52;;
22040;SDS011;11184;52.444;13.578;2023-03-01T04:36:58;38.67;;;21.73;;
22040;SDS011;11184;52.444;13.578;2023-03-01T04:39:43;24.83;;;19.83;;
22040;SDS011;11184;52.444;13.578;2023-03-01T04:42:31;27.67;;;19.85;;
22040;SDS011;11184;52.444;13.578;2023-03-01T04:45:16;27.33;;;22.92;;
22040;SDS011;11184;52.444;13.578;2023-03-01T04:48:01;26.65;;;20.10;;
22040;SDS011;11184;52.444;13.578;2023-03-01T04:50:46;33.97;;;22.45;;
22040;SDS011;11184;52.444;13.578;2023-03-01T04:53:31;29.02;;;21.67;;
22040;SDS011;11184;52.444;13.578;2023-03-01T04:56:16;27.58;;;21.45;;
22040;SDS011;11184;52.444;13.578;2023-03-01T04:59:06;28.05;;;21.42;;
22040;SDS011;11184;52.444;13.578;2023-03-01T05:01:54;24.25;;;18.00;;
22040;SDS011;11184;52.444;13.578;2023-03-01T05:04:39;42.72;;;21.75;;
22040;SDS011;11184;52.444;13.578;2023-03-01T05:07:23;29.88;;;21.20;;
22040;SDS011;11184;52.444;13.578;2023-03-01T05:10:09;32.78;;;20.98;;
22040;SDS011;11184;52.444;13.578;2023-03-01T05:12:54;30.20;;;22.77;;
22040;SDS011;11184;52.444;13.578;2023-03-01T05:15:41;26.13;;;20.13;;
22040;SDS011;11184;52.444;13.578;2023-03-01T05:18:27;22.60;;;19.90;;
22040;SDS011;11184;52.444;13.578;2023-03-01T05:21:12;23.75;;;21.17;;
22040;SDS011;11184;52.444;13.578;2023-03-01T05:23:59;34.35;;;21.73;;
22040;SDS011;11184;52.444;13.578;2023-03-01T05:26:44;30.70;;;21.77;;
22040;SDS011;11184;52.444;13.578;2023-03-01T05:29:31;23.20;;;20.65;;
22040;SDS011;11184;52.444;13.578;2023-03-01T05:32:18;26.88;;;21.90;;
22040;SDS011;11184;52.444;13.578;2023-03-01T05:35:03;24.23;;;20.00;;
22040;SDS011;11184;52.444;13.578;2023-03-01T05:37:48;31.83;;;22.15;;
22040;SDS011;11184;52.444;13.578;2023-03-01T05:40:33;29.08;;;22.42;;
22040;SDS011;11184;52.444;13.578;2023-03-01T05:43:18;28.60;;;22.05;;
22040;SDS011;11184;52.444;13.578;2023-03-01T05:46:03;26.63;;;21.00;;
22040;SDS011;11184;52.444;13.578;2023-03-01T05:48:47;30.10;;;21.23;;
22040;SDS011;11184;52.444;13.578;2023-03-01T05:51:32;32.00;;;22.60;;
22040;SDS011;11184;52.444;13.578;2023-03-01T05:54:17;30.45;;;22.83;;
22040;SDS011;11184;52.444;13.578;2023-03-01T05:57:02;39.60;;;25.30;;
22040;SDS011;11184;52.444;13.578;2023-03-01T05:59:47;28.08;;;22.05;;
22040;SDS011;11184;52.444;13.578;2023-03-01T06:02:31;29.63;;;23.63;;
22040;SDS011;11184;52.444;13.578;2023-03-01T06:05:16;29.52;;;21.88;;
22040;SDS011;11184;52.444;13.578;2023-03-01T06:08:01;38.92;;;24.70;;
22040;SDS011;11184;52.444;13.578;2023-03-01T06:10:45;38.08;;;25.42;;
22040;SDS011;11184;52.444;13.578;2023-03-01T06:13:31;29.17;;;22.55;;
22040;SDS011;11184;52.444;13.578;2023-03-01T06:16:16;36.28;;;25.38;;
22040;SDS011;11184;52.444;13.578;2023-03-01T06:19:00;34.08;;;23.25;;
22040;SDS011;11184;52.444;13.578;2023-03-01T06:21:45;35.78;;;24.90;;
22040;SDS011;11184;52.444;13.578;2023-03-01T06:24:30;33.83;;;22.70;;
22040;SDS011;11184;52.444;13.578;2023-03-01T06:27:14;31.63;;;21.00;;
22040;SDS011;11184;52.444;13.578;2023-03-01T06:29:59;38.00;;;24.65;;
22040;SDS011;11184;52.444;13.578;2023-03-01T06:32:44;33.10;;;23.58;;
22040;SDS011;11184;52.444;13.578;2023-03-01T06:35:28;31.95;;;23.38;;
22040;SDS011;11184;52.444;13.578;2023-03-01T06:38:14;29.38;;;24.40;;
22040;SDS011;11184;52.444;13.578;2023-03-01T06:41:01;36.50;;;27.10;;
22040;SDS011;11184;52.444;13.578;2023-03-01T06:43:45;35.15;;;25.02;;
22040;SDS011;11184;52.444;13.578;2023-03-01T06:46:30;30.48;;;24.63;;
22040;SDS011;11184;52.444;13.578;2023-03-01T06:49:14;34.40;;;24.17;;
22040;SDS011;11184;52.444;13.578;2023-03-01T06:52:01;38.17;;;26.70;;
22040;SDS011;11184;52.444;13.578;2023-03-01T06:54:46;30.33;;;25.25;;
22040;SDS011;11184;52.444;13.578;2023-03-01T06:57:30;46.10;;;29.08;;
22040;SDS011;11184;52.444;13.578;2023-03-01T07:00:15;33.97;;;24.50;;
22040;SDS011;11184;52.444;13.578;2023-03-01T07:03:00;40.47;;;28.25;;
22040;SDS011;11184;52.444;13.578;2023-03-01T07:05:48;35.97;;;24.83;;
22040;SDS011;11184;52.444;13.578;2023-03-01T07:08:35;41.63;;;31.20;;
22040;SDS011;11184;52.444;13.578;2023-03-01T07:11:20;35.92;;;27.55;;
22040;SDS011;11184;52.444;13.578;2023-03-01T07:14:04;35.97;;;27.05;;
22040;SDS011;11184;52.444;13.578;2023-03-01T07:16:50;31.83;;;25.77;;
22040;SDS011;11184;52.444;13.578;2023-03-01T07:19:35;30.80;;;24.83;;
22040;SDS011;11184;52.444;13.578;2023-03-01T07:22:19;36.38;;;24.98;;
22040;SDS011;11184;52.444;13.578;2023-03-01T07:25:04;35.88;;;24.90;;
22040;SDS011;11184;52.444;13.578;2023-03-01T07:27:50;37.85;;;27.27;;
22040;SDS011;11184;52.444;13.578;2023-03-01T07:30:35;31.92;;;25.52;;
22040;SDS011;11184;52.444;13.578;2023-03-01T07:33:20;35.65;;;23.27;;
22040;SDS011;11184;52.444;13.578;2023-03-01T07:36:05;31.77;;;23.33;;
22040;SDS011;11184;52.444;13.578;2023-03-01T07:38:50;32.17;;;24.65;;
22040;SDS011;11184;52.444;13.578;2023-03-01T07:41:35;33.17;;;24.48;;
22040;SDS011;11184;52.444;13.578;2023-03-01T07:44:20;33.47;;;24.00;;
22040;SDS011;11184;52.444;13.578;2023-03-01T07:47:05;34.80;;;24.15;;
22040;SDS011;11184;52.444;13.578;2023-03-01T07:49:49;29.73;;;23.88;;
22040;SDS011;11184;52.444;13.578;2023-03-01T07:52:34;26.42;;;21.13;;
22040;SDS011;11184;52.444;13.578;2023-03-01T07:55:18;27.70;;;20.40;;
22040;SDS011;11184;52.444;13.578;2023-03-01T07:58:03;28.80;;;21.65;;
22040;SDS011;11184;52.444;13.578;2023-03-01T08:00:48;31.20;;;21.20;;
22040;SDS011;11184;52.444;13.578;2023-03-01T08:03:33;27.90;;;21.50;;
22040;SDS011;11184;52.444;13.578;2023-03-01T08:06:18;28.70;;;21.35;;
22040;SDS011;11184;52.444;13.578;2023-03-01T08:09:02;24.83;;;19.25;;
22040;SDS011;11184;52.444;13.578;2023-03-01T08:11:47;25.52;;;19.48;;
22040;SDS011;11184;52.444;13.578;2023-03-01T08:14:32;25.70;;;19.83;;
22040;SDS011;11184;52.444;13.578;2023-03-01T08:17:16;27.00;;;18.60;;
22040;SDS011;11184;52.444;13.578;2023-03-01T08:20:02;28.75;;;20.95;;
22040;SDS011;11184;52.444;13.578;2023-03-01T08:22:49;27.70;;;19.98;;
22040;SDS011;11184;52.444;13.578;2023-03-01T08:25:34;23.25;;;18.48;;
22040;SDS011;11184;52.444;13.578;2023-03-01T08:28:19;30.55;;;18.85;;
22040;SDS011;11184;52.444;13.578;2023-03-01T08:31:12;34.15;;;19.42;;
22040;SDS011;11184;52.444;13.578;2023-03-01T08:33:58;22.05;;;17.83;;
22040;SDS011;11184;52.444;13.578;2023-03-01T08:36:44;24.10;;;17.05;;
22040;SDS011;11184;52.444;13.578;2023-03-01T08:39:29;29.65;;;17.65;;
22040;SDS011;11184;52.444;13.578;2023-03-01T08:42:13;17.40;;;15.38;;
22040;SDS011;11184;52.444;13.578;2023-03-01T08:44:58;22.38;;;18.25;;
22040;SDS011;11184;52.444;13.578;2023-03-01T08:47:43;21.77;;;17.80;;
22040;SDS011;11184;52.444;13.578;2023-03-01T08:50:29;32.65;;;17.13;;
22040;SDS011;11184;52.444;13.578;2023-03-01T08:53:13;29.48;;;15.75;;
22040;SDS011;11184;52.444;13.578;2023-03-01T08:55:59;24.83;;;15.90;;
22040;SDS011;11184;52.444;13.578;2023-03-01T08:58:46;27.73;;;16.15;;
22040;SDS011;11184;52.444;13.578;2023-03-01T09:01:31;23.60;;;16.30;;
22040;SDS011;11184;52.444;13.578;2023-03-01T09:04:16;24.00;;;15.77;;
22040;SDS011;11184;52.444;13.578;2023-03-01T09:07:00;17.80;;;14.35;;
22040;SDS011;11184;52.444;13.578;2023-03-01T09:09:45;20.63;;;14.80;;
22040;SDS011;11184;52.444;13.578;2023-03-01T09:12:29;14.43;;;12.45;;
22040;SDS011;11184;52.444;13.578;2023-03-01T09:15:14;13.90;;;12.38;;
22040;SDS011;11184;52.444;13.578;2023-03-01T09:17:59;9.82;;;8.88;;
22040;SDS011;11184;52.444;13.578;2023-03-01T09:20:44;12.32;;;9.18;;
22040;SDS011;11184;52.444;13.578;2023-03-01T09:23:29;7.30;;;5.75;;
22040;SDS011;11184;52.444;13.578;2023-03-01T09:26:14;10.07;;;7.05;;
22040;SDS011;11184;52.444;13.578;2023-03-01T09:29:08;11.23;;;8.32;;
22040;SDS011;11184;52.444;13.578;2023-03-01T09:31:53;11.50;;;10.32;;
22040;SDS011;11184;52.444;13.578;2023-03-01T09:34:38;14.95;;;11.65;;
22040;SDS011;11184;52.444;13.578;2023-03-01T09:37:42;12.68;;;10.52;;
22040;SDS011;11184;52.444;13.578;2023-03-01T09:40:28;11.73;;;9.73;;
22040;SDS011;11184;52.444;13.578;2023-03-01T09:46:16;10.75;;;7.88;;
22040;SDS011;11184;52.444;13.578;2023-03-01T09:49:02;12.43;;;7.28;;
22040;SDS011;11184;52.444;13.578;2023-03-01T09:52:03;14.65;;;8.68;;
22040;SDS011;11184;52.444;13.578;2023-03-01T09:54:53;11.38;;;8.73;;
22040;SDS011;11184;52.444;13.578;2023-03-01T09:57:41;8.65;;;6.88;;
22040;SDS011;11184;52.444;13.578;2023-03-01T10:00:39;9.98;;;8.85;;
22040;SDS011;11184;52.444;13.578;2023-03-01T10:03:28;9.25;;;7.38;;
22040;SDS011;11184;52.444;13.578;2023-03-01T10:06:21;12.93;;;7.32;;
22040;SDS011;11184;52.444;13.578;2023-03-01T10:09:16;12.98;;;9.15;;
22040;SDS011;11184;52.444;13.578;2023-03-01T10:12:02;7.22;;;6.30;;
22040;SDS011;11184;52.444;13.578;2023-03-01T10:23:42;6.95;;;5.35;;
22040;SDS011;11184;52.444;13.578;2023-03-01T10:26:34;10.55;;;6.80;;
22040;SDS011;11184;52.444;13.578;2023-03-01T10:29:23;12.35;;;6.68;;
22040;SDS011;11184;52.444;13.578;2023-03-01T10:32:08;9.93;;;7.75;;
22040;SDS011;11184;52.444;13.578;2023-03-01T10:34:54;14.27;;;8.18;;
22040;SDS011;11184;52.444;13.578;2023-03-01T10:37:46;9.90;;;8.13;;
22040;SDS011;11184;52.444;13.578;2023-03-01T10:40:50;15.52;;;8.45;;
22040;SDS011;11184;52.444;13.578;2023-03-01T10:43:45;6.00;;;5.45;;
22040;SDS011;11184;52.444;13.578;2023-03-01T10:46:31;8.68;;;5.93;;
22040;SDS011;11184;52.444;13.578;2023-03-01T10:49:20;6.32;;;5.53;;
22040;SDS011;11184;52.444;13.578;2023-03-01T10:52:19;11.18;;;6.38;;
22040;SDS011;11184;52.444;13.578;2023-03-01T10:58:09;8.70;;;6.93;;
22040;SDS011;11184;52.444;13.578;2023-03-01T11:01:05;7.05;;;6.30;;
22040;SDS011;11184;52.444;13.578;2023-03-01T11:04:08;10.65;;;6.10;;
22040;SDS011;11184;52.444;13.578;2023-03-01T11:06:58;6.63;;;5.45;;
22040;SDS011;11184;52.444;13.578;2023-03-01T11:09:43;7.03;;;6.30;;
22040;SDS011;11184;52.444;13.578;2023-03-01T11:12:28;9.95;;;6.05;;
22040;SDS011;11184;52.444;13.578;2023-03-01T11:15:20;5.30;;;4.72;;
22040;SDS011;11184;52.444;13.578;2023-03-01T11:18:05;14.35;;;10.60;;
22040;SDS011;11184;52.444;13.578;2023-03-01T11:21:02;9.13;;;5.55;;
22040;SDS011;11184;52.444;13.578;2023-03-01T11:23:57;10.25;;;5.10;;
22040;SDS011;11184;52.444;13.578;2023-03-01T11:26:45;6.25;;;5.40;;
22040;SDS011;11184;52.444;13.578;2023-03-01T11:32:15;8.43;;;4.97;;
22040;SDS011;11184;52.444;13.578;2023-03-01T11:35:08;6.80;;;5.07;;
22040;SDS011;11184;52.444;13.578;2023-03-01T11:43:54;7.40;;;4.88;;
22040;SDS011;11184;52.444;13.578;2023-03-01T11:49:58;6.43;;;4.30;;
22040;SDS011;11184;52.444;13.578;2023-03-01T11:58:32;3.13;;;2.85;;
22040;SDS011;11184;52.444;13.578;2023-03-01T12:10:32;7.05;;;3.20;;
22040;SDS011;11184;52.444;13.578;2023-03-01T12:16:29;3.67;;;3.13;;
22040;SDS011;11184;52.444;13.578;2023-03-01T12:19:18;5.40;;;3.88;;
22040;SDS011;11184;52.444;13.578;2023-03-01T12:28:09;4.35;;;3.38;;
22040;SDS011;11184;52.444;13.578;2023-03-01T12:34:03;3.83;;;3.30;;
22040;SDS011;11184;52.444;13.578;2023-03-01T12:36:54;5.28;;;2.72;;
22040;SDS011;11184;52.444;13.578;2023-03-01T12:39:50;5.53;;;3.55;;
22040;SDS011;11184;52.444;13.578;2023-03-01T12:45:37;7.35;;;3.10;;
22040;SDS011;11184;52.444;13.578;2023-03-01T12:51:19;4.45;;;2.95;;
22040;SDS011;11184;52.444;13.578;2023-03-01T12:54:07;4.85;;;2.78;;
22040;SDS011;11184;52.444;13.578;2023-03-01T12:56:56;8.20;;;2.10;;
22040;SDS011;11184;52.444;13.578;2023-03-01T13:02:38;9.18;;;3.15;;
22040;SDS011;11184;52.444;13.578;2023-03-01T13:11:46;6.30;;;2.30;;
22040;SDS011;11184;52.444;13.578;2023-03-01T13:17:32;3.03;;;2.17;;
22040;SDS011;11184;52.444;13.578;2023-03-01T13:20:18;5.95;;;4.70;;
22040;SDS011;11184;52.444;13.578;2023-03-01T13:23:06;8.98;;;3.20;;
22040;SDS011;11184;52.444;13.578;2023-03-01T13:26:08;5.47;;;2.85;;
22040;SDS011;11184;52.444;13.578;2023-03-01T13:28:56;9.02;;;2.20;;
22040;SDS011;11184;52.444;13.578;2023-03-01T13:34:39;4.95;;;2.58;;
22040;SDS011;11184;52.444;13.578;2023-03-01T13:37:25;4.53;;;2.65;;
22040;SDS011;11184;52.444;13.578;2023-03-01T13:43:23;3.00;;;2.63;;
22040;SDS011;11184;52.444;13.578;2023-03-01T13:46:19;4.47;;;2.60;;
22040;SDS011;11184;52.444;13.578;2023-03-01T13:49:04;2.90;;;1.85;;
22040;SDS011;11184;52.444;13.578;2023-03-01T13:51:49;2.95;;;2.08;;
22040;SDS011;11184;52.444;13.578;2023-03-01T13:54:34;2.33;;;1.98;;
22040;SDS011;11184;52.444;13.578;2023-03-01T13:57:20;2.80;;;2.03;;
22040;SDS011;11184;52.444;13.578;2023-03-01T14:00:07;3.03;;;2.13;;
22040;SDS011;11184;52.444;13.578;2023-03-01T14:03:16;3.88;;;2.28;;
22040;SDS011;11184;52.444;13.578;2023-03-01T14:06:08;5.90;;;2.53;;
22040;SDS011;11184;52.444;13.578;2023-03-01T14:09:02;4.13;;;2.40;;
22040;SDS011;11184;52.444;13.578;2023-03-01T14:14:52;2.55;;;2.30;;
22040;SDS011;11184;52.444;13.578;2023-03-01T14:17:44;6.68;;;2.53;;
22040;SDS011;11184;52.444;13.578;2023-03-01T14:20:31;3.97;;;2.08;;
22040;SDS011;11184;52.444;13.578;2023-03-01T14:23:20;2.88;;;1.83;;
22040;SDS011;11184;52.444;13.578;2023-03-01T14:26:06;2.80;;;1.50;;
22040;SDS011;11184;52.444;13.578;2023-03-01T14:28:52;4.10;;;2.33;;
22040;SDS011;11184;52.444;13.578;2023-03-01T14:31:38;4.05;;;1.85;;
22040;SDS011;11184;52.444;13.578;2023-03-01T14:34:23;3.35;;;2.17;;
22040;SDS011;11184;52.444;13.578;2023-03-01T14:37:27;2.33;;;2.13;;
22040;SDS011;11184;52.444;13.578;2023-03-01T14:40:20;2.30;;;1.90;;
22040;SDS011;11184;52.444;13.578;2023-03-01T14:43:09;3.45;;;2.10;;
22040;SDS011;11184;52.444;13.578;2023-03-01T14:45:55;3.15;;;1.70;;
22040;SDS011;11184;52.444;13.578;2023-03-01T14:48:40;5.40;;;3.10;;
22040;SDS011;11184;52.444;13.578;2023-03-01T14:51:24;10.95;;;2.40;;
22040;SDS011;11184;52.444;13.578;2023-03-01T14:54:25;3.35;;;2.55;;
22040;SDS011;11184;52.444;13.578;2023-03-01T14:57:15;3.80;;;2.20;;
22040;SDS011;11184;52.444;13.578;2023-03-01T15:00:00;3.90;;;2.17;;
22040;SDS011;11184;52.444;13.578;2023-03-01T15:02:49;4.78;;;2.65;;
22040;SDS011;11184;52.444;13.578;2023-03-01T15:05:35;3.03;;;2.35;;
22040;SDS011;11184;52.444;13.578;2023-03-01T15:08:23;5.68;;;3.10;;
22040;SDS011;11184;52.444;13.578;2023-03-01T15:11:22;14.65;;;3.55;;
22040;SDS011;11184;52.444;13.578;2023-03-01T15:20:16;10.45;;;2.83;;
22040;SDS011;11184;52.444;13.578;2023-03-01T15:23:01;7.88;;;3.47;;
22040;SDS011;11184;52.444;13.578;2023-03-01T15:25:47;7.82;;;2.95;;
22040;SDS011;11184;52.444;13.578;2023-03-01T15:28:40;3.30;;;1.92;;
22040;SDS011;11184;52.444;13.578;2023-03-01T15:31:30;2.53;;;2.03;;
22040;SDS011;11184;52.444;13.578;2023-03-01T15:34:21;2.72;;;1.83;;
22040;SDS011;11184;52.444;13.578;2023-03-01T15:37:35;5.90;;;1.98;;
22040;SDS011;11184;52.444;13.578;2023-03-01T15:40:25;5.20;;;2.30;;
22040;SDS011;11184;52.444;13.578;2023-03-01T15:43:36;10.40;;;3.53;;
22040;SDS011;11184;52.444;13.578;2023-03-01T15:46:20;3.28;;;2.58;;
22040;SDS011;11184;52.444;13.578;2023-03-01T15:52:22;4.47;;;2.08;;
22040;SDS011;11184;52.444;13.578;2023-03-01T15:55:21;9.90;;;2.65;;
22040;SDS011;11184;52.444;13.578;2023-03-01T15:58:10;6.03;;;2.92;;
22040;SDS011;11184;52.444;13.578;2023-03-01T16:00:56;8.77;;;2.92;;
22040;SDS011;11184;52.444;13.578;2023-03-01T16:03:42;8.30;;;3.25;;
22040;SDS011;11184;52.444;13.578;2023-03-01T16:06:27;6.15;;;2.00;;
22040;SDS011;11184;52.444;13.578;2023-03-01T16:09:12;3.17;;;2.08;;
22040;SDS011;11184;52.444;13.578;2023-03-01T16:11:57;4.88;;;2.63;;
22040;SDS011;11184;52.444;13.578;2023-03-01T16:14:42;5.93;;;2.80;;
22040;SDS011;11184;52.444;13.578;2023-03-01T16:17:27;8.60;;;2.13;;
22040;SDS011;11184;52.444;13.578;2023-03-01T16:20:13;3.58;;;2.17;;
22040;SDS011;11184;52.444;13.578;2023-03-01T16:23:03;2.92;;;2.42;;
22040;SDS011;11184;52.444;13.578;2023-03-01T16:25:48;8.65;;;3.15;;
22040;SDS011;11184;52.444;13.578;2023-03-01T16:28:33;3.67;;;1.73;;
22040;SDS011;11184;52.444;13.578;2023-03-01T16:31:18;4.00;;;2.30;;
22040;SDS011;11184;52.444;13.578;2023-03-01T16:34:03;4.95;;;2.63;;
22040;SDS011;11184;52.444;13.578;2023-03-01T16:36:48;6.18;;;2.17;;
22040;SDS011;11184;52.444;13.578;2023-03-01T16:39:32;5.72;;;3.17;;
22040;SDS011;11184;52.444;13.578;2023-03-01T16:42:17;2.95;;;2.50;;
22040;SDS011;11184;52.444;13.578;2023-03-01T16:45:03;11.15;;;3.13;;
22040;SDS011;11184;52.444;13.578;2023-03-01T16:47:51;7.07;;;3.03;;
22040;SDS011;11184;52.444;13.578;2023-03-01T16:50:36;9.82;;;3.30;;
22040;SDS011;11184;52.444;13.578;2023-03-01T16:53:21;5.90;;;2.55;;
22040;SDS011;11184;52.444;13.578;2023-03-01T16:56:06;10.90;;;5.13;;
22040;SDS011;11184;52.444;13.578;2023-03-01T16:58:51;7.75;;;2.92;;
22040;SDS011;11184;52.444;13.578;2023-03-01T17:01:36;6.32;;;3.55;;
22040;SDS011;11184;52.444;13.578;2023-03-01T17:04:24;7.70;;;3.25;;
22040;SDS011;11184;52.444;13.578;2023-03-01T17:07:09;5.15;;;3.33;;
22040;SDS011;11184;52.444;13.578;2023-03-01T17:09:54;8.82;;;3.38;;
22040;SDS011;11184;52.444;13.578;2023-03-01T17:12:38;11.40;;;4.65;;
22040;SDS011;11184;52.444;13.578;2023-03-01T17:15:23;19.58;;;8.35;;
22040;SDS011;11184;52.444;13.578;2023-03-01T17:18:08;16.85;;;9.00;;
22040;SDS011;11184;52.444;13.578;2023-03-01T17:20:53;13.43;;;6.28;;
22040;SDS011;11184;52.444;13.578;2023-03-01T17:23:38;14.40;;;7.63;;
22040;SDS011;11184;52.444;13.578;2023-03-01T17:26:23;23.27;;;9.60;;
22040;SDS011;11184;52.444;13.578;2023-03-01T17:29:08;26.40;;;11.70;;
22040;SDS011;11184;52.444;13.578;2023-03-01T17:31:53;24.23;;;8.70;;
22040;SDS011;11184;52.444;13.578;2023-03-01T17:34:39;25.08;;;12.13;;
22040;SDS011;11184;52.444;13.578;2023-03-01T17:37:24;25.05;;;12.13;;
22040;SDS011;11184;52.444;13.578;2023-03-01T17:40:09;36.35;;;14.98;;
22040;SDS011;11184;52.444;13.578;2023-03-01T17:42:54;32.08;;;17.02;;
22040;SDS011;11184;52.444;13.578;2023-03-01T17:45:39;39.95;;;19.88;;
22040;SDS011;11184;52.444;13.578;2023-03-01T17:48:27;32.72;;;16.60;;